Time;durP1;ratioP1;P1;durP2;ratioP2;P2;SDS_P1;SDS_P2;PMS_P1;PMS_P2;Temp;Humidity;BMP_temperature;BMP_pressure;BME280_temperature;BME280_humidity;BME280_pressure;Samples;Min_cycle;Max_cycle;Signal;HPM_P1;HPM_P2
2024/04/15 00:02:11;;;;;;;9.80;5.68;;;;;;;23.23;78.44;101807.72;143715;593;47008;-72
2024/04/15 00:04:37;;;;;;;9.35;6.32;;;;;;;23.24;79.01;101814.03;143714;578;47005;-71
2024/04/15 00:07:04;;;;;;;10.60;5.78;;;;;;;23.23;79.35;101813.19;143712;729;47013;-71
2024/04/15 00:09:30;;;;;;;6.72;5.72;;;;;;;23.22;79.72;101808.81;143714;579;47010;-71
2024/04/15 00:11:56;;;;;;;8.60;5.75;;;;;;;23.23;80.19;101804.16;143717;693;47008;-72
2024/04/15 00:14:23;;;;;;;9.50;5.65;;;;;;;23.21;80.13;101803.59;143712;577;47004;-72
2024/04/15 00:16:49;;;;;;;11.52;5.80;;;;;;;23.17;80.45;101812.28;143713;576;47010;-71
2024/04/15 00:19:15;;;;;;;9.88;5.87;;;;;;;23.16;80.55;101807.91;143713;709;47007;-72
2024/04/15 00:21:42;;;;;;;8.30;6.25;;;;;;;23.15;80.40;101802.69;143715;569;47008;-71
2024/04/15 00:24:08;;;;;;;7.32;5.28;;;;;;;23.04;80.17;101809.97;143715;634;47006;-71
2024/04/15 00:26:34;;;;;;;9.32;5.37;;;;;;;23.10;80.38;101802.63;143718;578;46010;-71
2024/04/15 00:29:01;;;;;;;11.63;5.53;;;;;;;23.01;79.35;101811.31;143712;634;47006;-71
2024/04/15 00:31:27;;;;;;;8.27;5.55;;;;;;;22.98;79.28;101808.22;143712;613;47006;-72
2024/04/15 00:33:54;;;;;;;10.60;6.10;;;;;;;22.91;79.37;101808.44;143712;718;47006;-71
2024/04/15 00:36:20;;;;;;;6.22;5.18;;;;;;;22.86;79.10;101800.97;143714;593;47010;-71
2024/04/15 00:38:47;;;;;;;8.70;4.78;;;;;;;22.84;79.37;101799.59;143714;566;47006;-71
2024/04/15 00:41:13;;;;;;;7.43;5.05;;;;;;;22.85;79.47;101793.84;143708;584;47008;-71
2024/04/15 00:43:39;;;;;;;8.02;5.00;;;;;;;22.80;79.43;101793.78;143714;580;47004;-72
2024/04/15 00:46:06;;;;;;;8.05;5.30;;;;;;;22.82;79.66;101794.34;143715;584;47012;-71
2024/04/15 00:48:32;;;;;;;10.82;5.57;;;;;;;22.78;79.23;101787.72;143712;744;47007;-71
2024/04/15 00:50:59;;;;;;;10.45;5.40;;;;;;;22.80;79.63;101773.78;143713;648;47009;-71
2024/04/15 00:53:25;;;;;;;10.50;5.68;;;;;;;22.81;79.61;101779.00;143713;750;47004;-72
2024/04/15 00:55:55;;;;;;;7.28;4.75;;;;;;;22.79;79.58;101780.34;143715;596;47011;-71
2024/04/15 00:58:24;;;;;;;11.07;4.80;;;;;;;22.68;79.96;101771.19;143714;609;47004;-71
2024/04/15 03:01:09;;;;;;;9.75;5.47;;;;;;;22.04;80.82;101734.97;143730;769;47006;-71
2024/04/15 03:03:36;;;;;;;13.38;5.25;;;;;;;22.00;80.89;101731.09;143722;581;47006;-71
2024/04/15 03:06:02;;;;;;;12.05;4.70;;;;;;;22.00;80.20;101733.00;143723;609;47002;-71
2024/04/15 03:08:29;;;;;;;17.62;5.65;;;;;;;21.99;80.20;101734.09;143726;686;47010;-71
2024/04/15 03:10:55;;;;;;;11.20;5.97;;;;;;;22.02;80.64;101736.31;143722;575;47004;-71
2024/04/15 03:13:22;;;;;;;12.93;6.25;;;;;;;21.98;80.63;101729.69;143725;653;47006;-71
2024/04/15 03:15:54;;;;;;;11.25;5.97;;;;;;;21.98;81.35;101730.50;143718;695;47002;-71
2024/04/15 03:18:21;;;;;;;12.57;6.28;;;;;;;21.99;81.47;101743.09;143726;592;47009;-71
2024/04/15 03:20:47;;;;;;;12.98;6.03;;;;;;;22.01;81.88;101731.94;143718;567;47004;-71
2024/04/15 03:23:14;;;;;;;17.35;5.68;;;;;;;21.94;81.97;101721.97;143721;593;47006;-71
2024/04/15 03:25:40;;;;;;;14.30;5.20;;;;;;;21.92;81.04;101734.25;143719;601;47002;-71
2024/04/15 03:28:06;;;;;;;15.23;5.93;;;;;;;21.90;79.91;101720.00;143721;713;47008;-71
2024/04/15 03:30:33;;;;;;;8.45;5.12;;;;;;;21.86;78.19;101732.50;143724;572;47004;-71
2024/04/15 03:32:59;;;;;;;10.45;5.18;;;;;;;21.88;79.25;101735.84;143727;582;47006;-72
2024/04/15 03:35:25;;;;;;;19.12;5.97;;;;;;;21.88;80.26;101727.63;143723;569;47006;-71
2024/04/15 03:37:52;;;;;;;14.57;5.57;;;;;;;21.85;80.44;101737.16;143721;599;47008;-72
2024/04/15 03:40:18;;;;;;;14.40;6.87;;;;;;;21.81;80.60;101733.28;143721;570;47005;-72
2024/04/15 03:42:45;;;;;;;12.25;6.10;;;;;;;21.76;80.70;101739.50;143724;630;47006;-72
2024/04/15 03:45:11;;;;;;;13.13;5.72;;;;;;;21.70;80.57;101747.88;143721;593;47004;-71
2024/04/15 03:47:37;;;;;;;12.25;5.70;;;;;;;21.65;80.37;101746.69;143726;602;47010;-71
2024/04/15 03:50:04;;;;;;;9.57;5.37;;;;;;;21.68;79.59;101744.56;143720;586;47004;-72
2024/04/15 03:52:31;;;;;;;8.40;5.18;;;;;;;21.70;79.20;101743.22;143726;630;46006;-71
2024/04/15 03:54:57;;;;;;;8.52;4.65;;;;;;;21.72;79.06;101745.69;143728;579;48000;-70
2024/04/15 03:57:24;;;;;;;10.75;5.87;;;;;;;21.74;80.01;101738.06;143725;671;47010;-73
2024/04/15 03:59:50;;;;;;;10.57;5.47;;;;;;;21.75;80.54;101743.31;143721;594;47015;-71
2024/04/15 04:02:16;;;;;;;12.48;5.90;;;;;;;21.69;80.31;101743.47;143718;629;47008;-71
2024/04/15 04:04:43;;;;;;;20.88;5.65;;;;;;;21.68;81.18;101742.63;143712;588;47004;-71
2024/04/15 04:07:09;;;;;;;12.30;6.37;;;;;;;21.65;80.98;101741.22;143716;594;47010;-71
2024/04/15 04:09:35;;;;;;;13.48;5.90;;;;;;;21.69;80.71;101738.00;143716;589;47006;-72
2024/04/15 04:12:02;;;;;;;13.20;5.80;;;;;;;21.68;81.96;101744.56;143713;567;47006;-72
2024/04/15 04:14:28;;;;;;;17.02;7.50;;;;;;;21.70;83.15;101748.69;143715;634;47006;-71
2024/04/15 04:16:54;;;;;;;14.57;7.93;;;;;;;21.68;83.40;101739.91;143719;588;47010;-72
2024/04/15 04:19:25;;;;;;;19.67;8.48;;;;;;;21.65;83.72;101741.22;143715;675;47006;-71
2024/04/15 04:21:51;;;;;;;22.70;7.12;;;;;;;21.60;83.36;101748.50;143718;568;47008;-71
2024/04/15 04:24:18;;;;;;;24.58;7.80;;;;;;;21.52;83.43;101744.28;143715;725;47004;-71
2024/04/15 04:26:44;;;;;;;20.75;6.75;;;;;;;21.46;84.16;101750.72;143714;602;47006;-71
2024/04/15 04:29:10;;;;;;;21.00;7.15;;;;;;;21.50;84.64;101755.44;143715;766;47006;-71
2024/04/15 04:31:39;;;;;;;23.45;7.40;;;;;;;21.54;84.79;101758.50;143715;588;47004;-71
2024/04/15 04:34:06;;;;;;;12.37;6.85;;;;;;;21.51;84.54;101753.53;143716;586;47004;-71
2024/04/15 04:36:32;;;;;;;19.67;6.53;;;;;;;21.50;84.93;101755.44;143719;603;47006;-71
2024/04/15 04:38:58;;;;;;;12.02;7.05;;;;;;;21.53;84.52;101762.31;143713;570;47006;-71
2024/04/15 04:41:25;;;;;;;17.12;7.25;;;;;;;21.53;84.76;101761.47;143718;593;47008;-71
2024/04/15 04:43:51;;;;;;;15.63;6.72;;;;;;;21.49;85.49;101755.69;143718;576;47004;-70
2024/04/15 04:46:17;;;;;;;19.50;7.43;;;;;;;21.58;86.13;101764.31;143718;596;47012;-70
2024/04/15 04:48:44;;;;;;;15.48;6.60;;;;;;;21.61;84.77;101758.38;143717;623;47006;-71
2024/04/15 04:51:11;;;;;;;15.60;7.37;;;;;;;21.65;85.18;101765.00;143719;599;47008;-70
2024/04/15 04:53:37;;;;;;;20.60;6.80;;;;;;;21.69;84.73;101765.34;143718;593;47004;-71
2024/04/15 04:56:10;;;;;;;15.77;7.00;;;;;;;21.76;84.16;101779.66;143715;599;47010;-70
2024/04/15 04:58:38;;;;;;;13.02;7.28;;;;;;;21.82;83.88;101773.22;143716;590;47006;-70
2024/04/15 05:01:14;;;;;;;15.57;7.65;;;;;;;21.90;84.79;101777.44;143714;581;47006;-70
2024/04/15 05:03:45;;;;;;;12.65;6.75;;;;;;;22.01;84.79;101778.44;143716;735;47002;-70
2024/04/15 05:06:14;;;;;;;18.08;7.82;;;;;;;22.09;85.24;101773.38;143713;682;47004;-70
2024/04/15 05:08:41;;;;;;;14.20;8.10;;;;;;;22.14;85.39;101764.41;143714;591;47004;-70
2024/04/15 05:11:07;;;;;;;17.40;7.95;;;;;;;22.14;85.70;101771.78;143719;676;46007;-70
2024/04/15 05:13:34;;;;;;;23.62;8.07;;;;;;;22.14;86.21;101767.12;143716;651;47004;-70
2024/04/15 05:16:10;;;;;;;17.25;7.22;;;;;;;22.23;85.81;101762.91;143715;627;47008;-70
2024/04/15 05:18:39;;;;;;;13.68;7.53;;;;;;;22.31;84.84;101756.16;143715;573;47004;-70
2024/04/15 05:21:16;;;;;;;29.87;15.30;;;;;;;22.38;85.13;101750.50;143718;563;47000;-70
2024/04/15 05:23:43;;;;;;;21.58;10.45;;;;;;;22.43;85.00;101747.03;143716;651;47004;-71
2024/04/15 05:26:10;;;;;;;16.40;9.63;;;;;;;22.49;85.23;101752.31;143713;602;47011;-71
2024/04/15 05:28:36;;;;;;;20.00;8.85;;;;;;;22.61;84.50;101754.94;143716;597;47004;-71
2024/04/15 05:31:03;;;;;;;15.75;9.50;;;;;;;22.64;84.50;101754.44;143718;690;47006;-71
2024/04/15 05:33:29;;;;;;;20.95;8.93;;;;;;;22.73;83.87;101752.06;143714;558;47002;-72
2024/04/15 05:35:56;;;;;;;19.52;8.60;;;;;;;22.79;84.05;101748.28;143717;575;47010;-72
2024/04/15 05:38:22;;;;;;;25.17;8.82;;;;;;;22.85;83.93;101744.53;143715;606;47004;-72
2024/04/15 05:40:49;;;;;;;18.95;8.75;;;;;;;22.91;84.58;101741.87;143717;686;47006;-70
2024/04/15 05:43:15;;;;;;;16.17;7.28;;;;;;;22.98;85.82;101745.22;143712;725;47002;-70
2024/04/15 05:45:43;;;;;;;17.25;7.30;;;;;;;23.00;86.66;101746.63;143716;595;47008;-70
2024/04/15 05:48:10;;;;;;;14.95;7.65;;;;;;;23.11;87.72;101741.25;143714;742;47004;-70
2024/04/15 05:50:38;;;;;;;18.02;8.27;;;;;;;23.14;85.78;101733.31;143717;585;47006;-71
2024/04/15 05:53:04;;;;;;;10.65;6.37;;;;;;;23.23;85.95;101738.37;143714;589;47002;-70
2024/04/15 05:55:31;;;;;;;14.63;7.43;;;;;;;23.29;86.18;101735.44;143716;569;47008;-70
2024/04/15 05:57:57;;;;;;;9.77;6.93;;;;;;;23.35;85.90;101736.31;143712;603;47004;-71
2024/04/15 06:00:24;;;;;;;20.23;7.70;;;;;;;23.40;85.68;101732.78;143714;591;47008;-70
2024/04/15 06:02:50;;;;;;;17.73;7.45;;;;;;;23.41;85.61;101737.16;143716;599;47004;-70
2024/04/15 06:05:16;;;;;;;14.48;7.40;;;;;;;23.47;86.31;101727.91;143717;595;47010;-70
2024/04/15 06:07:43;;;;;;;15.32;8.05;;;;;;;23.54;85.81;101723.03;143716;636;47006;-70
2024/04/15 06:10:09;;;;;;;15.48;8.57;;;;;;;23.61;85.33;101718.16;143717;646;47008;-72
2024/04/15 06:12:36;;;;;;;10.70;8.13;;;;;;;23.71;86.87;101725.63;143720;634;47002;-70
2024/04/15 06:15:02;;;;;;;12.57;8.23;;;;;;;23.73;86.65;101728.13;143716;651;47008;-71
2024/04/15 06:17:29;;;;;;;15.75;8.93;;;;;;;23.80;86.57;101728.72;143714;569;47004;-70
2024/04/15 06:19:55;;;;;;;13.30;8.20;;;;;;;23.90;86.12;101738.94;143719;709;47006;-71
2024/04/15 06:22:22;;;;;;;14.35;7.80;;;;;;;24.05;86.41;101732.75;143715;640;47004;-70
2024/04/15 06:24:48;;;;;;;12.80;8.40;;;;;;;24.10;85.43;101730.03;143716;583;47008;-70
2024/04/15 06:27:14;;;;;;;15.40;8.00;;;;;;;24.14;85.39;101720.16;143715;752;47004;-70
2024/04/15 06:29:41;;;;;;;15.68;8.27;;;;;;;24.18;84.41;101726.78;143714;573;47919;-70
2024/04/15 06:32:07;;;;;;;11.30;7.75;;;;;;;24.26;84.23;101728.19;143718;611;47004;-70
2024/04/15 06:34:33;;;;;;;17.73;8.23;;;;;;;24.34;83.30;101726.88;143714;580;47008;-70
2024/04/15 06:37:00;;;;;;;20.75;8.55;;;;;;;24.40;82.65;101731.28;143716;588;47004;-70
2024/04/15 06:39:27;;;;;;;15.65;8.00;;;;;;;24.46;82.89;101740.38;143715;568;47006;-70
2024/04/15 06:41:53;;;;;;;15.73;7.95;;;;;;;24.49;82.16;101739.84;143716;618;47002;-70
2024/04/15 06:44:19;;;;;;;16.83;7.62;;;;;;;24.53;82.38;101744.53;143719;590;47004;-70
2024/04/15 06:46:46;;;;;;;11.90;7.75;;;;;;;24.60;81.89;101744.28;143717;649;47004;-70
2024/04/15 06:49:12;;;;;;;15.20;8.25;;;;;;;24.57;80.87;101749.50;143712;580;47006;-71
2024/04/15 06:51:39;;;;;;;12.93;8.40;;;;;;;24.59;81.50;101753.59;143719;581;47000;-70
2024/04/15 06:54:06;;;;;;;16.10;8.90;;;;;;;24.68;81.07;101752.00;143718;581;47009;-72
2024/04/15 06:56:33;;;;;;;16.98;8.50;;;;;;;24.66;81.00;101745.97;143717;568;47008;-72
2024/04/15 06:58:59;;;;;;;21.62;8.70;;;;;;;24.80;81.56;101737.22;143716;584;47919;-71
2024/04/15 07:01:26;;;;;;;14.48;8.23;;;;;;;24.89;81.94;101741.09;143718;574;47009;-71
2024/04/15 07:03:54;;;;;;;17.70;8.95;;;;;;;25.02;83.16;101744.44;143715;605;47010;-72
2024/04/15 07:06:22;;;;;;;15.15;8.10;;;;;;;25.06;82.24;101742.81;143714;572;47006;-71
2024/04/15 07:08:48;;;;;;;14.95;8.57;;;;;;;25.09;81.30;101736.75;143716;579;47009;-70
2024/04/15 07:11:15;;;;;;;12.00;7.35;;;;;;;25.22;81.06;101736.22;143716;622;47004;-70
2024/04/15 07:13:42;;;;;;;11.60;7.53;;;;;;;25.32;81.65;101726.31;143717;581;47010;-71
2024/04/15 07:16:09;;;;;;;21.52;9.73;;;;;;;25.42;81.75;101716.19;143713;640;47007;-71
2024/04/15 07:18:36;;;;;;;15.43;8.40;;;;;;;25.43;81.14;101719.75;143717;613;47008;-70
2024/04/15 07:21:02;;;;;;;19.05;9.07;;;;;;;25.43;81.93;101712.34;143714;569;47004;-71
2024/04/15 07:23:29;;;;;;;13.88;8.10;;;;;;;25.47;81.58;101715.34;143715;603;47011;-72
2024/04/15 07:25:59;;;;;;;16.08;7.93;;;;;;;25.48;82.25;101708.75;143715;587;47006;-72
2024/04/15 07:28:25;;;;;;;18.77;8.30;;;;;;;25.64;83.57;101706.00;143718;566;47008;-71
2024/04/15 07:31:02;;;;;;;18.45;7.97;;;;;;;25.56;85.57;101705.47;143715;606;47005;-71
2024/04/15 07:33:29;;;;;;;14.25;7.82;;;;;;;25.70;85.88;101713.97;143716;598;47010;-71
2024/04/15 07:35:59;;;;;;;13.73;7.10;;;;;;;25.65;84.44;101710.41;143718;566;46014;-72
2024/04/15 07:38:26;;;;;;;15.55;7.40;;;;;;;25.70;84.69;101716.72;143715;612;47009;-71
2024/04/15 07:40:54;;;;;;;12.43;6.35;;;;;;;25.76;82.75;101728.56;143717;619;47004;-71
2024/04/15 07:43:20;;;;;;;16.48;7.70;;;;;;;25.62;85.51;101725.53;143716;577;47010;-71
2024/04/15 07:45:46;;;;;;;15.88;8.10;;;;;;;25.39;87.48;101730.47;143715;602;47007;-72
2024/04/15 07:48:14;;;;;;;12.57;7.70;;;;;;;25.21;86.58;101733.75;143717;572;47008;-71
2024/04/15 07:50:41;;;;;;;10.05;8.10;;;;;;;25.27;88.38;101736.22;143715;631;47006;-71
2024/04/15 07:53:08;;;;;;;14.77;7.70;;;;;;;25.20;87.27;101740.34;143715;592;47012;-71
2024/04/15 07:55:34;;;;;;;13.35;7.95;;;;;;;25.27;87.34;101736.22;143715;653;47006;-73
2024/04/15 07:58:00;;;;;;;9.27;6.82;;;;;;;25.49;88.05;101742.59;143718;567;47008;-72
2024/04/15 08:00:26;;;;;;;12.10;8.27;;;;;;;25.60;89.71;101738.75;143717;577;47006;-70
2024/04/15 08:02:53;;;;;;;10.27;9.05;;;;;;;25.76;89.67;101739.56;143716;586;47008;-71
2024/04/15 08:05:19;;;;;;;16.58;9.45;;;;;;;25.78;90.60;101734.59;143716;574;47002;-72
2024/04/15 08:07:46;;;;;;;13.23;9.98;;;;;;;25.80;91.30;101737.88;143715;597;47002;-72
2024/04/15 08:10:12;;;;;;;12.15;9.70;;;;;;;25.78;90.79;101726.34;143715;569;47004;-71
2024/04/15 08:12:38;;;;;;;10.95;9.15;;;;;;;26.00;90.18;101726.03;143717;658;47008;-70
2024/04/15 08:15:05;;;;;;;13.90;9.48;;;;;;;26.11;89.35;101721.37;143717;597;47008;-71
2024/04/15 08:17:32;;;;;;;15.75;9.43;;;;;;;26.18;89.03;101718.31;143716;567;47006;-71
2024/04/15 08:19:58;;;;;;;14.50;9.05;;;;;;;26.23;89.37;101728.47;143716;589;47004;-71
2024/04/15 08:22:24;;;;;;;13.30;8.55;;;;;;;26.25;88.44;101729.03;143716;589;47010;-71
2024/04/15 08:24:51;;;;;;;11.25;9.35;;;;;;;26.45;87.75;101719.84;143715;601;47004;-71
2024/04/15 08:27:17;;;;;;;13.25;9.27;;;;;;;26.55;86.89;101722.56;143716;579;47006;-71
2024/04/15 08:29:44;;;;;;;14.25;9.00;;;;;;;26.63;86.66;101726.66;143715;596;47002;-72
2024/04/15 08:32:10;;;;;;;16.02;9.00;;;;;;;26.63;86.89;101723.91;143718;597;47008;-71
2024/04/15 08:34:36;;;;;;;9.77;8.68;;;;;;;26.58;85.42;101726.69;143719;605;46016;-70
2024/04/15 08:37:04;;;;;;;8.50;7.18;;;;;;;26.52;82.09;101725.88;143715;593;47006;-70
2024/04/15 08:39:32;;;;;;;13.20;6.55;;;;;;;26.62;79.93;101714.81;143717;628;47002;-71
2024/04/15 08:42:19;;;;;;;8.05;5.15;;;;;;;26.82;74.80;101715.03;143716;608;47010;-72
2024/04/15 08:44:48;;;;;;;10.13;5.37;;;;;;;26.86;73.92;101716.91;143715;573;47004;-72
2024/04/15 08:47:27;;;;;;;8.23;5.95;;;;;;;26.95;73.62;101714.38;143717;589;47006;-80
2024/04/15 08:49:53;;;;;;;11.30;5.80;;;;;;;27.04;72.11;101718.16;143715;586;47004;-76
2024/04/15 08:52:20;;;;;;;8.32;6.43;;;;;;;27.02;75.17;101703.03;143714;666;47008;-78
2024/04/15 08:54:46;;;;;;;10.70;5.62;;;;;;;27.17;73.43;101694.63;143716;686;47004;-76
2024/04/15 08:57:14;;;;;;;10.45;5.82;;;;;;;27.21;73.57;101698.47;143715;568;47006;-75
2024/04/15 08:59:43;;;;;;;11.73;8.00;;;;;;;27.33;74.62;101687.06;143714;637;47007;-76
2024/04/15 09:02:18;;;;;;;11.68;6.20;;;;;;;27.51;72.27;101681.97;143718;586;47010;-77
2024/04/15 09:04:44;;;;;;;7.12;6.03;;;;;;;27.62;71.66;101671.66;143716;580;47006;-76
2024/04/15 09:07:10;;;;;;;9.35;5.65;;;;;;;27.78;70.90;101683.34;143714;653;47009;-76
2024/04/15 09:09:37;;;;;;;11.43;6.20;;;;;;;27.80;69.64;101678.38;143719;679;47009;-75
2024/04/15 09:12:04;;;;;;;13.60;7.97;;;;;;;28.03;71.47;101673.16;143715;663;47010;-75
2024/04/15 09:14:30;;;;;;;12.68;7.62;;;;;;;28.03;71.81;101681.44;143709;576;47006;-76
2024/04/15 09:16:56;;;;;;;9.75;6.12;;;;;;;28.08;70.13;101673.06;143712;602;47008;-76
2024/04/15 09:19:23;;;;;;;12.45;6.10;;;;;;;28.15;70.45;101670.81;143715;568;47004;-77
2024/04/15 09:21:49;;;;;;;9.63;5.95;;;;;;;28.15;68.82;101659.78;143716;571;47010;-76
2024/04/15 09:24:17;;;;;;;10.35;6.62;;;;;;;28.13;70.72;101668.38;143714;681;47006;-76
2024/04/15 09:26:43;;;;;;;11.82;6.37;;;;;;;28.21;70.74;101666.88;143716;677;47008;-64
2024/04/15 09:29:09;;;;;;;11.05;6.65;;;;;;;28.36;70.32;101665.03;143708;629;48004;-64
2024/04/15 09:31:37;;;;;;;10.30;6.20;;;;;;;28.23;70.90;101664.66;143712;579;47006;-65
2024/04/15 09:34:03;;;;;;;9.80;6.95;;;;;;;28.25;70.59;101658.81;143713;598;47006;-66
2024/04/15 09:36:30;;;;;;;10.07;5.90;;;;;;;28.36;71.04;101660.31;143715;678;47007;-65
2024/04/15 09:38:58;;;;;;;12.05;8.02;;;;;;;28.56;70.13;101658.38;143714;682;47004;-66
2024/04/15 09:41:25;;;;;;;11.45;6.93;;;;;;;28.55;69.67;101662.28;143713;682;47010;-64
2024/04/15 09:43:53;;;;;;;8.88;6.75;;;;;;;28.65;69.94;101653.00;143716;577;47010;-64
2024/04/15 09:46:20;;;;;;;12.55;7.30;;;;;;;28.77;70.10;101647.06;143719;639;46008;-65
2024/04/15 09:48:48;;;;;;;16.40;6.05;;;;;;;28.88;70.32;101643.00;143717;574;47008;-66
2024/04/15 09:51:22;;;;;;;8.80;7.30;;;;;;;28.92;70.23;101644.06;143713;689;47012;-65
2024/04/15 09:53:54;;;;;;;23.20;6.20;;;;;;;28.95;69.35;101639.84;143713;752;47010;-66
2024/04/15 09:56:28;;;;;;;8.70;5.85;;;;;;;28.96;67.18;101639.56;143713;646;47008;-65
2024/04/15 09:58:56;;;;;;;10.57;5.85;;;;;;;28.96;67.28;101622.97;143716;687;47006;-64
2024/04/15 10:01:29;;;;;;;10.00;8.00;;;;;;;29.12;67.94;101626.31;143714;610;47013;-65
2024/04/15 10:04:01;;;;;;;8.02;5.57;;;;;;;29.10;65.96;101617.50;143712;566;47004;-66
2024/04/15 10:06:42;;;;;;;8.57;5.87;;;;;;;29.13;66.63;101608.56;143714;607;47000;-65
2024/04/15 10:09:10;;;;;;;11.70;5.37;;;;;;;29.12;64.49;101608.88;143715;574;47004;-65
2024/04/15 10:11:37;;;;;;;8.32;5.22;;;;;;;29.24;63.48;101600.09;143713;655;47010;-65
2024/04/15 10:14:03;;;;;;;9.43;5.97;;;;;;;29.37;65.04;101593.78;143712;588;47004;-65
2024/04/15 10:16:34;;;;;;;7.15;4.82;;;;;;;29.34;62.85;101584.12;143715;603;47007;-65
2024/04/15 10:19:00;;;;;;;8.40;5.60;;;;;;;29.54;64.32;101584.91;143714;616;47002;-66
2024/04/15 10:21:27;;;;;;;9.05;6.80;;;;;;;29.74;64.47;101574.56;143708;585;48004;-65
2024/04/15 10:23:56;;;;;;;8.25;5.57;;;;;;;29.77;64.17;101579.44;143714;585;47004;-66
2024/04/15 10:26:26;;;;;;;13.55;6.65;;;;;;;29.76;65.04;101575.87;143715;623;47006;-65
2024/04/15 10:29:21;;;;;;;9.32;7.70;;;;;;;29.57;66.16;101573.19;143715;589;47004;-65
2024/04/15 10:31:56;;;;;;;17.42;8.13;;;;;;;29.57;67.32;101569.63;143715;592;47008;-65
2024/04/15 10:34:27;;;;;;;12.63;7.47;;;;;;;29.65;65.88;101566.94;143715;572;47008;-65
2024/04/15 10:36:57;;;;;;;11.45;7.18;;;;;;;29.68;69.00;101565.50;143714;616;47006;-65
2024/04/15 10:39:24;;;;;;;11.70;7.18;;;;;;;29.53;69.52;101560.28;143714;569;47002;-65
2024/04/15 10:41:52;;;;;;;11.98;7.35;;;;;;;29.60;67.94;101553.22;143718;584;46010;-65
2024/04/15 10:44:18;;;;;;;16.37;7.05;;;;;;;29.58;68.32;101549.91;143714;581;47004;-65
2024/04/15 10:46:46;;;;;;;10.63;6.32;;;;;;;29.50;68.71;101557.00;143715;628;47006;-65
2024/04/15 10:49:13;;;;;;;10.30;6.68;;;;;;;29.55;67.73;101545.03;143712;582;47002;-66
2024/04/15 10:51:39;;;;;;;11.48;6.55;;;;;;;29.32;70.19;101550.41;143716;582;46008;-65
2024/04/15 10:54:05;;;;;;;10.90;5.93;;;;;;;29.28;69.97;101532.78;143714;586;47004;-65
2024/04/15 10:56:32;;;;;;;13.27;6.03;;;;;;;29.30;71.37;101546.31;143715;595;47006;-66
2024/04/15 10:58:59;;;;;;;13.95;6.72;;;;;;;29.50;71.26;101539.59;143712;647;47002;-65
2024/04/15 11:01:26;;;;;;;11.23;6.62;;;;;;;29.52;71.75;101537.34;143714;597;47008;-65
2024/04/15 11:03:52;;;;;;;10.02;6.55;;;;;;;29.44;72.09;101529.75;143712;574;47006;-65
2024/04/15 11:06:19;;;;;;;11.50;6.90;;;;;;;29.37;70.35;101523.81;143715;600;47008;-65
2024/04/15 11:08:46;;;;;;;12.63;5.87;;;;;;;29.53;71.03;101516.00;143713;583;47006;-65
2024/04/15 11:11:14;;;;;;;8.90;6.55;;;;;;;29.61;70.98;101513.31;143715;597;47010;-65
2024/04/15 11:13:41;;;;;;;9.45;6.95;;;;;;;29.67;70.82;101508.50;143713;608;47006;-65
2024/04/15 11:16:11;;;;;;;11.43;6.57;;;;;;;29.79;70.17;101496.88;143717;582;47008;-65
2024/04/15 11:18:37;;;;;;;6.85;5.82;;;;;;;29.93;69.83;101499.62;143714;566;47004;-66
2024/04/15 11:21:06;;;;;;;9.40;6.93;;;;;;;29.91;68.39;101496.34;143714;596;47010;-66
2024/04/15 11:23:33;;;;;;;9.60;5.90;;;;;;;29.98;65.78;101490.41;143713;581;47006;-65
2024/04/15 11:26:01;;;;;;;8.90;6.28;;;;;;;30.14;67.29;101488.91;143712;567;47008;-66
2024/04/15 11:28:29;;;;;;;8.32;5.22;;;;;;;30.18;64.90;101484.41;143714;601;47006;-65
2024/04/15 11:30:58;;;;;;;8.75;6.05;;;;;;;30.25;62.55;101479.25;143714;664;47010;-65
2024/04/15 11:33:27;;;;;;;11.95;6.93;;;;;;;30.33;64.00;101476.84;143711;741;47006;-66
2024/04/15 11:35:54;;;;;;;6.87;5.82;;;;;;;30.37;62.81;101464.00;143717;600;46009;-66
2024/04/15 11:38:21;;;;;;;10.30;6.07;;;;;;;30.45;62.68;101467.94;143715;596;47004;-66
2024/04/15 11:40:48;;;;;;;6.18;5.12;;;;;;;30.48;62.57;101475.62;143716;567;47010;-66
2024/04/15 11:43:15;;;;;;;7.75;4.60;;;;;;;30.62;59.05;101456.19;143713;633;47006;-65
2024/04/15 11:45:54;;;;;;;7.65;4.70;;;;;;;30.64;61.84;101459.44;143714;666;47008;-65
2024/04/15 11:48:26;;;;;;;8.90;5.10;;;;;;;30.58;60.39;101447.66;143715;588;47006;-65
2024/04/15 11:50:54;;;;;;;9.43;4.75;;;;;;;30.74;61.17;101450.87;143715;608;47012;-66
2024/04/15 11:53:24;;;;;;;8.77;4.87;;;;;;;30.85;62.31;101437.53;143710;590;47004;-66
2024/04/15 11:55:53;;;;;;;6.18;4.87;;;;;;;30.88;61.18;101441.62;143712;588;47006;-67
2024/04/15 11:58:21;;;;;;;10.13;5.47;;;;;;;30.79;60.07;101436.03;143714;573;47002;-64
2024/04/15 12:00:47;;;;;;;10.32;6.00;;;;;;;30.79;60.97;101428.56;143713;578;47011;-67
2024/04/15 12:03:15;;;;;;;11.07;5.65;;;;;;;30.79;59.64;101419.41;143715;674;47006;-66
2024/04/15 12:05:41;;;;;;;6.40;4.47;;;;;;;30.70;58.53;101422.12;143714;572;47008;-66
2024/04/15 12:08:08;;;;;;;7.53;4.68;;;;;;;30.81;57.63;101415.16;143711;583;47004;-66
2024/04/15 12:10:34;;;;;;;6.70;5.07;;;;;;;30.89;57.80;101408.00;143716;573;47010;-66
2024/04/15 12:13:01;;;;;;;5.90;4.15;;;;;;;30.83;54.80;101401.78;143712;610;47006;-65
2024/04/15 12:15:27;;;;;;;4.97;3.72;;;;;;;30.84;55.04;101408.16;143716;597;47009;-65
2024/04/15 12:17:54;;;;;;;6.18;3.65;;;;;;;30.73;55.00;101391.00;143712;582;47004;-66
2024/04/15 12:20:20;;;;;;;5.45;4.30;;;;;;;30.83;55.11;101392.66;143714;582;47010;-66
2024/04/15 12:22:47;;;;;;;6.78;4.32;;;;;;;30.76;56.52;101382.03;143712;634;47006;-64
2024/04/15 12:25:13;;;;;;;7.53;3.85;;;;;;;30.79;55.25;101377.81;143713;580;47008;-66
2024/04/15 12:27:43;;;;;;;9.93;4.12;;;;;;;30.90;55.71;101381.91;143713;677;47005;-66
2024/04/15 12:30:11;;;;;;;9.85;5.10;;;;;;;30.96;55.44;101365.94;143715;667;47013;-66
2024/04/15 12:32:41;;;;;;;8.43;4.72;;;;;;;30.93;56.32;101358.28;143714;568;47006;-66
2024/04/15 12:35:08;;;;;;;10.07;4.57;;;;;;;30.91;56.19;101357.78;143715;629;47008;-67
2024/04/15 12:37:35;;;;;;;6.93;5.30;;;;;;;30.93;55.68;101352.72;143715;603;47007;-66
2024/04/15 12:40:05;;;;;;;5.78;4.57;;;;;;;31.00;55.43;101344.72;143712;640;47012;-65
2024/04/15 12:42:32;;;;;;;6.65;4.32;;;;;;;30.90;54.22;101345.84;143714;573;47006;-65
2024/04/15 12:44:58;;;;;;;6.90;4.15;;;;;;;30.88;54.36;101341.78;143717;575;47008;-66
2024/04/15 12:47:25;;;;;;;7.47;4.40;;;;;;;30.84;55.01;101333.28;143711;576;47006;-65
2024/04/15 12:49:51;;;;;;;7.37;4.80;;;;;;;30.88;55.34;101325.97;143716;615;47010;-64
2024/04/15 12:52:18;;;;;;;9.10;4.07;;;;;;;30.94;55.47;101319.09;143713;573;47006;-65
2024/04/15 12:54:44;;;;;;;6.80;5.70;;;;;;;30.97;54.37;101306.56;143718;607;46008;-65
2024/04/15 12:57:11;;;;;;;5.97;5.40;;;;;;;30.97;55.07;101303.78;143716;616;47004;-66
2024/04/15 12:59:37;;;;;;;5.57;3.85;;;;;;;30.84;53.79;101298.03;143715;567;47012;-67
2024/04/15 13:02:04;;;;;;;9.43;4.60;;;;;;;30.89;55.13;101279.62;143709;581;48006;-66
2024/04/15 13:04:30;;;;;;;6.93;4.30;;;;;;;30.92;54.85;101278.97;143714;618;47006;-66
2024/04/15 13:06:57;;;;;;;4.93;3.40;;;;;;;30.97;51.95;101270.50;143716;607;47004;-66
2024/04/15 13:09:23;;;;;;;4.37;3.30;;;;;;;30.97;48.15;101262.19;143715;592;46017;-66
2024/04/15 13:11:50;;;;;;;5.22;3.35;;;;;;;30.96;48.69;101255.00;143713;585;47004;-66
2024/04/15 13:14:16;;;;;;;6.15;3.25;;;;;;;31.03;48.00;101248.97;143711;599;48002;-66
2024/04/15 13:16:42;;;;;;;5.90;2.95;;;;;;;31.03;46.19;101251.75;143714;583;47004;-66
2024/04/15 13:19:09;;;;;;;6.43;2.95;;;;;;;30.99;44.97;101246.00;143714;615;47010;-66
2024/04/15 13:21:35;;;;;;;5.50;2.78;;;;;;;31.08;44.67;101246.84;143713;579;47005;-66